Time;durP1;ratioP1;P1;durP2;ratioP2;P2;SDS_P1;SDS_P2;PMS_P1;PMS_P2;Temp;Humidity;BMP_temperature;BMP_pressure;BME280_temperature;BME280_humidity;BME280_pressure;Samples;Min_cycle;Max_cycle;Signal;HPM_P1;HPM_P2
2022/12/29 00:01:38;;;;;;;12.07;6.93;;;7.30;99.90;;;;;;5049641;28;20241;-85
2022/12/29 00:04:29;;;;;;;11.80;6.87;;;7.40;99.90;;;;;;5055965;28;20726;-85
2022/12/29 00:07:19;;;;;;;12.90;7.40;;;7.30;99.90;;;;;;5051358;28;20219;-83
2022/12/29 00:10:08;;;;;;;13.87;7.27;;;7.30;99.90;;;;;;5056077;28;20260;-85
2022/12/29 00:16:04;;;;;;;14.37;7.07;;;7.30;99.90;;;;;;5051144;28;20220;-83
2022/12/29 00:18:53;;;;;;;10.43;6.63;;;7.30;99.90;;;;;;5059621;28;20231;-85
2022/12/29 00:44:09;;;;;;;12.37;6.90;;;7.40;99.90;;;;;;5078239;28;20220;-80
2022/12/29 00:47:02;;;;;;;10.70;5.93;;;7.50;99.90;;;;;;5104934;27;20296;-80
2022/12/29 00:49:49;;;;;;;12.33;6.03;;;7.50;99.90;;;;;;5079469;28;20220;-79
2022/12/29 00:52:40;;;;;;;11.67;6.47;;;7.50;99.90;;;;;;5073042;28;20274;-82
2022/12/29 00:55:28;;;;;;;10.37;6.43;;;7.50;99.90;;;;;;5060912;28;20877;-80
2022/12/29 00:58:17;;;;;;;9.47;5.70;;;7.40;99.90;;;;;;5078655;28;20216;-81
2022/12/29 01:01:09;;;;;;;10.67;6.50;;;7.40;99.90;;;;;;5063096;28;20236;-80
2022/12/29 01:03:59;;;;;;;12.07;6.20;;;7.40;99.90;;;;;;5070546;28;20227;-81
2022/12/29 01:06:52;;;;;;;11.10;5.77;;;7.40;99.90;;;;;;5098239;27;20368;-81
2022/12/29 01:12:50;;;;;;;9.40;5.97;;;7.40;99.90;;;;;;5098945;27;20213;-81
2022/12/29 01:15:38;;;;;;;10.00;5.90;;;7.40;99.90;;;;;;5092960;28;20707;-80
2022/12/29 01:18:27;;;;;;;10.77;6.33;;;7.40;99.90;;;;;;5096751;27;20226;-79
2022/12/29 01:21:16;;;;;;;10.23;6.10;;;7.30;99.90;;;;;;5090257;28;21132;-79
2022/12/29 01:24:06;;;;;;;9.93;6.00;;;7.40;99.90;;;;;;5126823;27;20768;-80
2022/12/29 01:26:56;;;;;;;11.17;6.13;;;7.40;99.90;;;;;;5093062;27;20222;-76
2022/12/29 01:29:45;;;;;;;10.90;6.03;;;7.30;99.90;;;;;;5092412;27;20741;-79
2022/12/29 01:32:34;;;;;;;10.00;6.03;;;7.30;99.90;;;;;;5120433;27;21142;-79
2022/12/29 01:35:23;;;;;;;10.40;5.90;;;7.30;99.90;;;;;;5124060;27;20688;-79
2022/12/29 01:38:12;;;;;;;10.07;5.80;;;7.20;99.90;;;;;;5098919;27;20903;-79
2022/12/29 01:41:01;;;;;;;9.47;5.37;;;7.20;99.90;;;;;;5090188;27;20499;-79
2022/12/29 01:43:53;;;;;;;10.67;6.07;;;7.30;99.90;;;;;;5094857;27;20345;-79
2022/12/29 01:46:46;;;;;;;9.47;5.43;;;7.30;99.90;;;;;;5102651;27;21595;-80
2022/12/29 01:49:35;;;;;;;9.23;5.50;;;7.30;99.90;;;;;;5097350;28;20223;-80
2022/12/29 01:52:28;;;;;;;9.50;5.63;;;7.30;99.90;;;;;;5124476;27;20594;-80
2022/12/29 01:55:17;;;;;;;9.23;5.30;;;7.30;99.90;;;;;;5098167;28;20916;-80
2022/12/29 01:58:08;;;;;;;8.83;5.63;;;7.30;99.90;;;;;;5088810;27;20238;-79
2022/12/29 02:00:59;;;;;;;8.17;5.20;;;7.30;99.90;;;;;;5091245;27;20310;-79
2022/12/29 02:03:49;;;;;;;10.07;5.37;;;7.30;99.90;;;;;;5106326;27;20222;-78
2022/12/29 02:06:45;;;;;;;8.93;5.30;;;7.30;99.90;;;;;;5099484;28;20219;-77
2022/12/29 02:09:33;;;;;;;8.93;5.57;;;7.30;99.90;;;;;;5092499;28;20235;-80
2022/12/29 02:12:24;;;;;;;9.47;5.23;;;7.30;99.90;;;;;;5093156;28;20218;-78
2022/12/29 02:15:14;;;;;;;9.43;5.25;;;7.20;99.90;;;;;;5097788;27;20253;-78
2022/12/29 02:18:17;;;;;;;7.20;4.70;;;7.20;99.90;;;;;;5098328;27;20219;-79
2022/12/29 02:21:45;;;;;;;8.90;5.00;;;7.20;99.90;;;;;;5110300;27;20231;-79
2022/12/29 02:25:12;;;;;;;8.63;5.30;;;7.30;99.90;;;;;;5002864;28;20257;-78
2022/12/29 02:28:34;;;;;;;12.50;5.60;;;7.20;99.90;;;;;;5098757;27;20214;-79
2022/12/29 02:31:31;;;;;;;10.02;5.70;;;7.10;99.90;;;;;;5106689;27;20219;-79
2022/12/29 02:34:27;;;;;;;9.67;5.07;;;7.20;99.90;;;;;;5101164;28;20223;-80
2022/12/29 02:37:23;;;;;;;13.17;5.67;;;7.10;99.90;;;;;;5098060;27;20317;-79
2022/12/29 02:40:23;;;;;;;9.97;5.60;;;7.20;99.90;;;;;;5096954;27;20780;-79
2022/12/29 02:43:24;;;;;;;9.20;5.67;;;7.10;99.90;;;;;;5096822;27;20222;-79
2022/12/29 02:46:19;;;;;;;8.37;4.70;;;7.10;99.90;;;;;;5101560;27;20233;-80
2022/12/29 02:49:15;;;;;;;10.93;4.73;;;7.00;99.90;;;;;;5105333;27;20574;-79
2022/12/29 02:52:07;;;;;;;8.20;4.67;;;7.00;99.90;;;;;;5094070;27;20734;-81
2022/12/29 02:54:58;;;;;;;9.00;4.43;;;7.00;99.90;;;;;;5107312;27;20665;-81
2022/12/29 02:57:46;;;;;;;9.67;4.50;;;7.00;99.90;;;;;;5098080;27;20282;-80
2022/12/29 03:00:42;;;;;;;7.67;4.87;;;7.00;99.90;;;;;;5095727;28;20222;-81
2022/12/29 03:03:46;;;;;;;6.17;4.33;;;7.00;99.90;;;;;;5110620;27;20223;-81
2022/12/29 03:06:51;;;;;;;10.43;4.90;;;6.90;99.90;;;;;;5104712;27;20237;-80
2022/12/29 03:09:48;;;;;;;8.40;4.70;;;6.80;99.90;;;;;;5125480;27;20216;-84
2022/12/29 03:16:04;;;;;;;7.00;4.73;;;6.80;99.90;;;;;;5102105;27;20582;-81
2022/12/29 03:19:01;;;;;;;8.47;4.87;;;6.70;99.90;;;;;;5102337;27;20235;-80
2022/12/29 03:25:14;;;;;;;7.47;4.67;;;6.70;99.90;;;;;;5107915;27;20250;-81
2022/12/29 03:28:08;;;;;;;7.67;4.50;;;6.60;99.90;;;;;;5096930;28;20223;-81
2022/12/29 03:31:05;;;;;;;9.23;4.83;;;6.50;99.90;;;;;;5103252;27;20212;-82
2022/12/29 03:33:57;;;;;;;9.00;4.90;;;6.60;99.90;;;;;;5097334;27;20222;-81
2022/12/29 03:36:51;;;;;;;7.80;4.63;;;6.60;99.90;;;;;;5095332;28;20256;-80
2022/12/29 03:39:42;;;;;;;9.23;4.90;;;6.50;99.90;;;;;;5107422;27;20253;-80
2022/12/29 03:42:35;;;;;;;8.53;4.73;;;6.40;99.90;;;;;;5091239;28;20856;-78
2022/12/29 03:45:24;;;;;;;8.20;5.00;;;6.40;99.90;;;;;;5097011;27;21027;-80
2022/12/29 03:48:13;;;;;;;9.07;4.90;;;6.40;99.90;;;;;;5123094;27;20227;-79
2022/12/29 03:51:02;;;;;;;8.77;5.00;;;6.40;99.90;;;;;;5098629;27;20831;-80
2022/12/29 03:53:51;;;;;;;7.77;4.57;;;6.30;99.90;;;;;;5110386;27;20211;-78
2022/12/29 03:56:41;;;;;;;8.47;4.47;;;6.40;99.90;;;;;;5110750;27;20219;-79
2022/12/29 03:59:31;;;;;;;7.43;4.40;;;6.50;99.90;;;;;;5089344;27;20582;-78
2022/12/29 04:02:23;;;;;;;10.07;5.00;;;6.50;99.90;;;;;;5095980;28;20227;-80
2022/12/29 04:05:14;;;;;;;9.47;5.03;;;6.40;99.90;;;;;;5095531;27;20318;-78
2022/12/29 04:08:03;;;;;;;8.57;5.07;;;6.30;99.90;;;;;;5088918;28;20281;-81
2022/12/29 04:10:52;;;;;;;10.37;5.13;;;6.30;99.90;;;;;;5108891;27;20382;-80
2022/12/29 04:13:44;;;;;;;9.97;5.27;;;6.30;99.90;;;;;;5097010;28;20238;-80
2022/12/29 04:16:38;;;;;;;9.37;5.03;;;6.20;99.90;;;;;;5092282;28;20880;-82
2022/12/29 04:19:28;;;;;;;8.10;5.37;;;6.10;99.90;;;;;;5107145;27;20219;-81
2022/12/29 04:22:17;;;;;;;11.97;5.60;;;6.20;99.90;;;;;;5089443;27;20229;-81
2022/12/29 04:25:07;;;;;;;9.73;5.47;;;6.20;99.90;;;;;;5092530;27;20780;-82
2022/12/29 04:27:56;;;;;;;11.40;6.10;;;6.20;99.90;;;;;;5093691;27;20321;-82
2022/12/29 04:31:05;;;;;;;9.83;6.17;;;6.30;99.90;;;;;;5095563;27;20828;-81
2022/12/29 04:33:57;;;;;;;10.83;6.03;;;6.20;99.90;;;;;;5097463;27;20211;-82
2022/12/29 04:36:46;;;;;;;10.80;6.00;;;6.20;99.90;;;;;;5095546;28;20558;-82
2022/12/29 04:39:35;;;;;;;11.60;6.63;;;6.20;99.90;;;;;;5099158;27;20360;-82
2022/12/29 04:42:25;;;;;;;12.70;6.63;;;6.20;99.90;;;;;;5088905;28;21033;-82
2022/12/29 04:45:14;;;;;;;11.70;6.50;;;6.10;99.90;;;;;;5097187;28;20367;-83
2022/12/29 04:48:20;;;;;;;11.60;6.33;;;6.10;99.90;;;;;;5121920;27;20314;-82
2022/12/29 04:51:47;;;;;;;13.03;6.60;;;6.10;99.90;;;;;;5036502;28;20735;-82
2022/12/29 04:54:39;;;;;;;12.43;6.70;;;6.10;99.90;;;;;;5026513;28;20220;-82
2022/12/29 04:57:34;;;;;;;11.40;5.90;;;6.20;99.90;;;;;;5100995;27;20228;-83
2022/12/29 05:00:23;;;;;;;14.90;7.57;;;6.20;99.90;;;;;;5102610;27;20778;-81
2022/12/29 05:03:13;;;;;;;15.23;7.23;;;6.20;99.90;;;;;;5096717;28;20228;-82
2022/12/29 05:06:06;;;;;;;11.97;7.20;;;6.20;99.90;;;;;;5089016;27;20307;-82
2022/12/29 05:08:55;;;;;;;11.20;6.70;;;6.10;99.90;;;;;;5099088;27;20234;-82
2022/12/29 05:11:44;;;;;;;12.80;7.13;;;6.10;99.90;;;;;;5099776;28;20756;-80
2022/12/29 05:14:33;;;;;;;13.77;7.23;;;6.00;99.90;;;;;;5088733;28;20226;-81
2022/12/29 05:17:22;;;;;;;16.83;7.67;;;6.10;99.90;;;;;;5089236;27;20213;-80
2022/12/29 05:20:12;;;;;;;15.10;7.67;;;6.10;99.90;;;;;;5097024;27;20223;-80
2022/12/29 05:23:02;;;;;;;13.30;7.50;;;6.10;99.90;;;;;;5097527;28;20234;-80
2022/12/29 05:25:51;;;;;;;13.13;7.60;;;6.10;99.90;;;;;;5099990;27;20566;-80
2022/12/29 05:28:59;;;;;;;17.80;8.03;;;6.10;99.90;;;;;;5094242;27;20696;-81
2022/12/29 05:31:48;;;;;;;14.07;7.77;;;6.10;99.90;;;;;;5094708;28;20292;-78
2022/12/29 05:34:37;;;;;;;15.77;7.87;;;6.00;99.90;;;;;;5096794;28;20917;-76
2022/12/29 05:37:26;;;;;;;12.83;6.90;;;6.00;99.90;;;;;;5098584;27;20760;-78
2022/12/29 05:40:17;;;;;;;12.53;7.47;;;6.00;99.90;;;;;;5096340;28;20222;-75
2022/12/29 05:43:06;;;;;;;13.97;8.10;;;6.00;99.90;;;;;;5097533;28;20216;-79
2022/12/29 05:46:16;;;;;;;14.43;7.27;;;6.00;99.90;;;;;;5100781;28;20224;-78
2022/12/29 05:49:35;;;;;;;13.57;7.37;;;6.00;99.90;;;;;;5098000;27;20224;-80
2022/12/29 05:52:39;;;;;;;15.67;7.53;;;6.10;99.90;;;;;;5094757;28;20210;-78
2022/12/29 05:55:30;;;;;;;15.10;8.00;;;6.10;99.90;;;;;;5090675;28;20595;-79
2022/12/29 05:58:18;;;;;;;14.83;7.37;;;6.20;99.90;;;;;;5120640;27;20300;-80
2022/12/29 06:01:08;;;;;;;15.13;7.23;;;6.20;99.90;;;;;;5094145;27;20318;-82
2022/12/29 06:03:58;;;;;;;15.13;6.80;;;6.20;99.90;;;;;;5104968;27;20222;-78
2022/12/29 06:06:47;;;;;;;11.70;7.20;;;6.20;99.90;;;;;;5129755;27;20215;-78
2022/12/29 06:09:44;;;;;;;13.50;7.73;;;6.30;99.90;;;;;;5094586;28;20526;-79
2022/12/29 06:12:34;;;;;;;13.70;6.90;;;6.20;99.90;;;;;;5094287;28;20644;-79
2022/12/29 06:15:25;;;;;;;13.97;6.63;;;6.20;99.90;;;;;;5108433;27;20334;-80
2022/12/29 06:18:14;;;;;;;11.73;6.33;;;6.20;99.90;;;;;;5095065;27;20231;-80
2022/12/29 06:21:08;;;;;;;13.53;6.90;;;6.20;99.90;;;;;;5092885;27;20289;-80
2022/12/29 06:23:57;;;;;;;12.67;6.87;;;6.30;99.90;;;;;;5100176;27;20211;-79
2022/12/29 06:26:46;;;;;;;12.47;6.83;;;6.30;99.90;;;;;;5096396;28;20309;-76
2022/12/29 06:29:36;;;;;;;14.60;7.13;;;6.30;99.90;;;;;;5095883;28;21096;-77
2022/12/29 06:32:25;;;;;;;11.67;6.67;;;6.30;99.90;;;;;;5088669;27;20225;-77
2022/12/29 06:35:17;;;;;;;11.63;6.97;;;6.20;99.90;;;;;;5126245;27;20266;-77
2022/12/29 06:38:10;;;;;;;14.00;6.87;;;6.30;99.90;;;;;;5091414;27;20254;-76
2022/12/29 06:40:59;;;;;;;19.07;7.07;;;6.30;99.90;;;;;;5090928;27;20235;-77
2022/12/29 06:43:56;;;;;;;11.57;6.97;;;6.30;99.90;;;;;;5103403;27;20227;-78
2022/12/29 06:47:06;;;;;;;10.87;6.53;;;6.20;99.90;;;;;;5086558;27;21197;-80
2022/12/29 06:49:55;;;;;;;13.53;7.07;;;6.30;99.90;;;;;;5092486;27;20225;-80
2022/12/29 06:52:45;;;;;;;14.97;7.60;;;6.40;99.90;;;;;;5101539;27;20352;-80
2022/12/29 06:55:33;;;;;;;15.20;7.40;;;6.30;99.90;;;;;;5099026;27;20211;-80
2022/12/29 06:58:22;;;;;;;19.37;7.50;;;6.30;99.90;;;;;;5095438;28;20218;-80
2022/12/29 07:01:11;;;;;;;13.57;6.70;;;6.40;99.90;;;;;;5121559;27;20256;-80
2022/12/29 07:04:01;;;;;;;14.07;8.73;;;6.40;99.90;;;;;;5099254;27;20229;-80
2022/12/29 07:06:50;;;;;;;12.83;6.10;;;6.40;99.90;;;;;;5092364;28;20226;-77
2022/12/29 07:09:39;;;;;;;10.00;6.23;;;6.40;99.90;;;;;;5107282;27;20703;-79
2022/12/29 07:12:28;;;;;;;10.43;6.30;;;6.50;99.90;;;;;;5016161;28;20225;-81
2022/12/29 07:15:17;;;;;;;10.47;6.33;;;6.50;99.90;;;;;;5083594;27;20231;-78
2022/12/29 07:18:06;;;;;;;9.67;5.63;;;6.60;99.90;;;;;;5100373;27;20215;-81
2022/12/29 07:20:56;;;;;;;10.13;6.13;;;6.60;99.90;;;;;;5100505;27;20999;-79
2022/12/29 07:23:45;;;;;;;8.87;5.50;;;6.60;99.90;;;;;;5109595;27;20227;-78
2022/12/29 07:26:34;;;;;;;11.90;6.30;;;6.60;99.90;;;;;;5099024;27;21631;-77
2022/12/29 07:29:24;;;;;;;13.67;6.23;;;6.60;99.90;;;;;;5097647;27;20222;-82
2022/12/29 07:32:13;;;;;;;13.50;6.67;;;6.70;99.90;;;;;;5098008;27;20670;-79
2022/12/29 07:35:01;;;;;;;11.43;6.13;;;6.70;99.90;;;;;;5093532;27;20230;-80
2022/12/29 07:37:54;;;;;;;9.60;5.80;;;6.80;99.90;;;;;;5105024;27;20234;-80
2022/12/29 07:40:42;;;;;;;11.20;5.80;;;6.70;99.90;;;;;;5112040;27;20582;-82
2022/12/29 07:43:31;;;;;;;10.40;6.33;;;6.80;99.90;;;;;;5099690;27;20230;-81
2022/12/29 07:46:49;;;;;;;9.40;5.70;;;6.80;99.90;;;;;;5089512;27;20234;-80
2022/12/29 07:49:45;;;;;;;12.53;6.73;;;6.80;99.90;;;;;;5097556;27;20224;-83
2022/12/29 07:52:34;;;;;;;12.03;6.23;;;6.80;99.90;;;;;;5093824;27;20225;-84
2022/12/29 07:55:25;;;;;;;13.63;6.37;;;6.90;99.90;;;;;;5119556;27;20223;-83
2022/12/29 07:58:14;;;;;;;11.47;6.23;;;6.90;99.90;;;;;;5091826;28;20272;-82
2022/12/29 08:01:03;;;;;;;11.33;6.03;;;6.90;99.90;;;;;;5091217;28;20219;-81
2022/12/29 08:03:52;;;;;;;11.33;6.43;;;6.90;99.90;;;;;;5098903;27;20993;-82
2022/12/29 08:06:45;;;;;;;11.30;6.20;;;6.90;99.90;;;;;;5120347;27;20225;-82
2022/12/29 08:09:34;;;;;;;11.47;6.57;;;6.90;99.90;;;;;;5094518;27;20218;-84
2022/12/29 08:12:24;;;;;;;9.27;5.70;;;6.90;99.90;;;;;;5097464;27;20590;-82
2022/12/29 08:15:14;;;;;;;13.20;6.10;;;7.10;99.90;;;;;;5090901;28;20233;-81
2022/12/29 08:18:04;;;;;;;11.20;5.90;;;7.10;99.90;;;;;;5092682;27;20226;-84
2022/12/29 08:20:53;;;;;;;9.73;5.50;;;7.10;99.90;;;;;;5115247;27;20790;-88
2022/12/29 08:23:43;;;;;;;11.40;6.03;;;7.30;99.90;;;;;;5117522;27;20250;-90
2022/12/29 08:26:32;;;;;;;10.40;5.87;;;7.30;99.90;;;;;;5104169;27;20215;-92
2022/12/29 08:29:23;;;;;;;9.73;5.67;;;7.30;99.90;;;;;;5096675;28;20222;-84
2022/12/29 08:32:12;;;;;;;12.40;5.70;;;7.30;99.90;;;;;;5098006;27;20840;-88
2022/12/29 08:35:01;;;;;;;7.87;4.97;;;7.40;99.90;;;;;;5100264;27;20248;-87
2022/12/29 08:37:50;;;;;;;8.80;5.77;;;7.50;99.90;;;;;;5099214;27;20219;-88
2022/12/29 08:40:39;;;;;;;10.77;5.77;;;7.50;99.90;;;;;;5102456;28;20685;-87
2022/12/29 08:43:28;;;;;;;9.87;5.60;;;7.50;99.90;;;;;;5103235;27;20249;-87
2022/12/29 08:46:19;;;;;;;8.83;5.10;;;7.60;99.90;;;;;;5121314;27;20229;-87
2022/12/29 08:49:08;;;;;;;11.40;6.07;;;7.70;99.90;;;;;;5100425;28;20258;-87
2022/12/29 08:51:57;;;;;;;10.90;5.70;;;7.80;99.90;;;;;;5108011;28;20232;-87
2022/12/29 08:54:45;;;;;;;10.27;5.90;;;7.80;99.90;;;;;;5103383;27;20719;-87
2022/12/29 08:57:35;;;;;;;11.93;6.10;;;7.80;99.90;;;;;;5100052;27;20685;-87
2022/12/29 09:00:28;;;;;;;10.77;6.30;;;7.70;99.90;;;;;;5105753;27;20221;-88
2022/12/29 09:03:20;;;;;;;10.63;5.37;;;7.70;99.90;;;;;;5100276;28;20267;-88
2022/12/29 09:06:28;;;;;;;10.27;5.47;;;7.90;99.90;;;;;;5121927;27;20212;-89
2022/12/29 09:09:22;;;;;;;11.40;5.80;;;7.90;99.90;;;;;;5102600;27;20676;-90
2022/12/29 09:12:12;;;;;;;10.80;5.53;;;7.90;99.90;;;;;;5122434;27;20571;-88
2022/12/29 09:15:01;;;;;;;10.57;6.00;;;8.00;99.90;;;;;;5098714;28;20238;-88
2022/12/29 09:17:49;;;;;;;9.60;5.10;;;8.00;99.90;;;;;;5108630;27;20214;-85
2022/12/29 09:20:39;;;;;;;8.27;4.70;;;8.00;99.90;;;;;;5099042;27;20221;-86
2022/12/29 09:23:29;;;;;;;8.10;5.40;;;8.10;99.90;;;;;;5099142;27;20217;-85
2022/12/29 09:26:18;;;;;;;10.57;5.77;;;8.10;99.90;;;;;;5097894;28;20434;-86
2022/12/29 09:29:07;;;;;;;13.17;5.60;;;8.20;99.90;;;;;;5101608;27;20574;-85
2022/12/29 09:31:55;;;;;;;10.03;5.30;;;8.20;99.90;;;;;;5106849;27;20234;-86
2022/12/29 09:34:44;;;;;;;10.63;5.03;;;8.20;99.90;;;;;;5099628;27;20229;-85
2022/12/29 09:37:34;;;;;;;9.07;4.70;;;8.20;99.90;;;;;;5103352;28;20244;-85
2022/12/29 09:40:29;;;;;;;8.63;4.75;;;8.20;99.90;;;;;;5113897;27;21516;-86
2022/12/29 09:43:52;;;;;;;11.67;5.30;;;8.20;99.90;;;;;;5107600;28;20214;-85
2022/12/29 09:46:44;;;;;;;9.43;5.00;;;8.20;99.90;;;;;;5102465;27;20306;-87
2022/12/29 09:49:42;;;;;;;12.93;5.47;;;8.30;99.90;;;;;;5106711;27;20538;-85
2022/12/29 09:52:36;;;;;;;9.27;5.37;;;8.40;99.90;;;;;;5104227;27;20233;-84
2022/12/29 09:55:39;;;;;;;9.77;4.97;;;8.40;99.90;;;;;;5103997;28;20263;-85
2022/12/29 09:58:31;;;;;;;10.93;5.40;;;8.30;99.90;;;;;;5106573;27;20217;-89
2022/12/29 10:01:28;;;;;;;8.57;5.00;;;8.30;99.90;;;;;;5128779;27;20214;-87
2022/12/29 10:04:18;;;;;;;9.67;5.60;;;8.40;99.90;;;;;;5097244;28;20222;-82
2022/12/29 10:07:17;;;;;;;7.93;4.80;;;8.40;99.90;;;;;;5102540;27;20219;-81
2022/12/29 10:10:39;;;;;;;9.60;4.95;;;8.40;99.90;;;;;;5101554;27;20765;-81
2022/12/29 10:13:38;;;;;;;8.20;4.95;;;8.40;99.90;;;;;;5090059;27;21114;-82
2022/12/29 10:16:36;;;;;;;12.65;5.40;;;8.40;99.90;;;;;;5092718;27;20230;-81
2022/12/29 10:19:38;;;;;;;6.93;4.80;;;8.40;99.90;;;;;;5099288;27;20230;-81
2022/12/29 10:22:39;;;;;;;10.23;4.97;;;8.40;99.90;;;;;;5105175;27;20716;-82
2022/12/29 10:25:35;;;;;;;10.40;5.37;;;8.30;99.90;;;;;;5100305;27;20226;-81
2022/12/29 10:28:30;;;;;;;9.10;5.23;;;8.30;99.90;;;;;;5109468;27;20317;-81
2022/12/29 10:31:23;;;;;;;8.10;5.07;;;8.40;99.90;;;;;;5091485;28;20643;-81
2022/12/29 10:34:20;;;;;;;7.43;4.93;;;8.40;99.90;;;;;;5096019;27;20270;-79
2022/12/29 10:37:22;;;;;;;10.37;5.30;;;8.50;99.90;;;;;;5092372;27;20217;-79
2022/12/29 10:40:23;;;;;;;8.13;5.20;;;8.50;99.90;;;;;;5126831;27;21034;-79
2022/12/29 10:43:25;;;;;;;8.83;5.20;;;8.50;99.90;;;;;;5119900;27;20216;-79
2022/12/29 10:46:17;;;;;;;8.52;4.95;;;8.50;99.90;;;;;;5116069;27;20341;-79
2022/12/29 10:49:12;;;;;;;10.15;5.15;;;8.60;99.90;;;;;;5108040;27;20223;-80
2022/12/29 10:52:10;;;;;;;11.45;5.70;;;8.60;99.90;;;;;;5094753;27;20221;-80
2022/12/29 10:55:01;;;;;;;8.52;5.43;;;8.70;99.90;;;;;;5127986;27;20305;-80
2022/12/29 10:57:50;;;;;;;8.73;5.18;;;8.70;99.90;;;;;;5099434;27;20223;-81
2022/12/29 11:00:42;;;;;;;8.63;5.10;;;8.70;99.90;;;;;;5092755;27;20215;-81
2022/12/29 11:03:54;;;;;;;8.73;5.68;;;8.80;99.90;;;;;;5103377;27;20230;-81
2022/12/29 11:06:44;;;;;;;10.10;5.50;;;8.80;99.90;;;;;;5088995;27;20708;-80
2022/12/29 11:09:37;;;;;;;10.93;5.87;;;8.80;99.90;;;;;;5096342;27;20223;-79
2022/12/29 11:12:32;;;;;;;8.82;5.28;;;8.90;99.90;;;;;;5101260;27;20356;-78
2022/12/29 11:15:21;;;;;;;11.50;5.45;;;8.80;99.90;;;;;;5090226;28;20220;-78
2022/12/29 11:18:25;;;;;;;9.35;5.30;;;8.80;99.90;;;;;;5090052;28;20720;-79
2022/12/29 11:21:27;;;;;;;8.88;5.25;;;8.90;99.90;;;;;;5092664;27;20219;-79
2022/12/29 11:24:22;;;;;;;10.80;5.47;;;8.90;99.90;;;;;;5100269;28;20585;-78
2022/12/29 11:27:17;;;;;;;10.55;5.18;;;9.00;99.90;;;;;;5097126;27;20705;-79
2022/12/29 11:30:23;;;;;;;14.82;6.30;;;9.00;99.90;;;;;;5095534;28;20317;-80
2022/12/29 11:33:12;;;;;;;13.85;6.13;;;9.00;99.90;;;;;;5091217;27;20722;-80
2022/12/29 11:36:07;;;;;;;12.50;6.05;;;9.10;99.90;;;;;;5097180;28;20227;-80
2022/12/29 11:38:57;;;;;;;10.85;5.78;;;9.10;99.90;;;;;;5095485;27;21042;-78
2022/12/29 11:41:53;;;;;;;11.82;5.57;;;9.10;99.90;;;;;;5094076;27;20761;-79
2022/12/29 11:44:45;;;;;;;11.52;5.68;;;9.10;99.90;;;;;;5093448;28;20238;-80
2022/12/29 11:47:36;;;;;;;10.27;5.90;;;9.10;99.90;;;;;;5103338;27;20923;-80
2022/12/29 11:50:29;;;;;;;9.43;6.10;;;9.00;99.90;;;;;;5107377;27;20384;-80
2022/12/29 11:53:22;;;;;;;9.68;6.18;;;9.10;99.90;;;;;;5119818;27;20295;-80
2022/12/29 11:56:14;;;;;;;10.23;5.93;;;9.10;99.90;;;;;;5092561;27;20321;-81
2022/12/29 11:59:37;;;;;;;10.93;5.88;;;9.10;99.90;;;;;;5091763;28;20694;-81
2022/12/29 12:02:48;;;;;;;11.25;6.18;;;9.20;99.90;;;;;;5092852;28;20241;-81
2022/12/29 12:05:42;;;;;;;11.75;6.25;;;9.10;99.90;;;;;;5095365;27;20215;-81
2022/12/29 12:08:38;;;;;;;11.30;5.65;;;9.20;99.90;;;;;;5097302;27;20218;-82
2022/12/29 12:11:36;;;;;;;9.25;5.78;;;9.20;99.90;;;;;;5108445;27;21731;-81
2022/12/29 12:14:32;;;;;;;11.20;5.75;;;9.20;99.90;;;;;;5094591;28;20221;-81
2022/12/29 12:17:48;;;;;;;11.05;6.10;;;9.20;99.90;;;;;;5114900;27;20219;-81
2022/12/29 12:20:44;;;;;;;13.35;6.38;;;9.30;99.90;;;;;;5119191;27;20743;-81
2022/12/29 12:23:42;;;;;;;13.77;5.70;;;9.30;99.90;;;;;;5117760;27;20831;-81
2022/12/29 12:26:36;;;;;;;15.68;6.30;;;9.30;99.90;;;;;;5094668;27;20305;-81
2022/12/29 12:29:29;;;;;;;10.70;5.95;;;9.30;99.90;;;;;;5098015;27;20314;-82
2022/12/29 12:32:23;;;;;;;9.65;5.68;;;9.40;99.90;;;;;;5093730;27;20645;-81
2022/12/29 12:35:13;;;;;;;9.15;5.63;;;9.40;99.90;;;;;;5115890;27;20224;-81
2022/12/29 12:38:28;;;;;;;9.43;5.55;;;9.40;99.90;;;;;;5096708;28;20969;-81
2022/12/29 12:41:27;;;;;;;12.52;5.25;;;9.40;99.90;;;;;;5096788;27;20223;-82
2022/12/29 12:44:23;;;;;;;11.88;5.88;;;9.50;99.90;;;;;;5095932;27;20681;-81
2022/12/29 12:47:27;;;;;;;11.05;5.70;;;9.40;99.90;;;;;;5101981;27;20702;-81
2022/12/29 12:50:25;;;;;;;10.60;5.47;;;9.50;99.90;;;;;;5091818;28;20223;-81
2022/12/29 12:53:26;;;;;;;10.57;5.32;;;9.50;99.90;;;;;;5124342;27;20219;-85
2022/12/29 12:56:38;;;;;;;10.07;5.43;;;9.50;99.90;;;;;;5091751;27;20211;-82
2022/12/29 12:59:39;;;;;;;10.77;5.82;;;9.60;99.90;;;;;;5094720;27;20230;-82
2022/12/29 13:02:42;;;;;;;11.52;5.93;;;9.70;99.90;;;;;;5094246;28;20295;-82
2022/12/29 13:05:57;;;;;;;10.27;5.90;;;9.70;99.90;;;;;;5093544;28;20636;-81
2022/12/29 13:09:06;;;;;;;11.80;6.20;;;9.70;99.90;;;;;;5105128;27;20214;-80
2022/12/29 13:12:08;;;;;;;11.65;6.55;;;9.70;99.90;;;;;;5092594;28;20347;-81
2022/12/29 13:15:09;;;;;;;14.60;6.25;;;9.70;99.90;;;;;;5103699;27;20219;-81
2022/12/29 13:18:06;;;;;;;10.98;5.88;;;9.70;99.90;;;;;;5100353;27;20226;-81
2022/12/29 13:21:01;;;;;;;10.18;5.65;;;9.80;99.90;;;;;;5094789;27;20879;-80
2022/12/29 13:24:01;;;;;;;14.38;6.13;;;9.80;99.90;;;;;;5096344;28;20821;-81
2022/12/29 13:26:55;;;;;;;10.75;5.72;;;9.80;99.90;;;;;;5096028;27;20240;-81
2022/12/29 13:29:53;;;;;;;9.40;5.80;;;9.70;99.90;;;;;;5088162;28;20231;-81
2022/12/29 13:32:58;;;;;;;9.70;5.93;;;9.70;99.90;;;;;;5105917;27;20235;-81
2022/12/29 13:35:56;;;;;;;10.70;6.30;;;9.70;99.90;;;;;;5092172;27;20230;-81
2022/12/29 13:38:49;;;;;;;10.18;5.63;;;9.70;99.90;;;;;;5096850;27;20257;-81
2022/12/29 13:41:41;;;;;;;11.32;5.75;;;9.70;99.90;;;;;;5096217;27;20226;-82
2022/12/29 13:44:49;;;;;;;12.52;6.03;;;9.80;99.90;;;;;;5093366;27;20709;-79
2022/12/29 13:47:43;;;;;;;12.57;5.97;;;9.70;99.90;;;;;;5095765;28;20708;-81
2022/12/29 13:50:38;;;;;;;11.63;5.75;;;9.80;99.90;;;;;;5092715;28;20235;-81
2022/12/29 13:53:35;;;;;;;12.50;6.25;;;9.80;99.90;;;;;;5118387;27;20230;-81
2022/12/29 13:56:27;;;;;;;11.32;5.50;;;9.80;99.90;;;;;;5091207;27;20211;-81
2022/12/29 13:59:22;;;;;;;12.52;5.68;;;9.80;99.90;;;;;;5090508;27;21001;-81
2022/12/29 14:02:27;;;;;;;10.73;6.05;;;9.80;99.90;;;;;;5089483;28;20211;-81
2022/12/29 14:05:32;;;;;;;10.95;6.25;;;9.80;99.90;;;;;;5090213;27;20223;-81
2022/12/29 14:08:20;;;;;;;9.23;5.57;;;9.80;99.90;;;;;;5093353;28;20215;-81
2022/12/29 14:11:12;;;;;;;11.57;6.30;;;9.80;99.90;;;;;;5122152;27;20222;-82
2022/12/29 14:14:12;;;;;;;12.40;6.68;;;9.80;99.90;;;;;;5101284;28;20230;-81
2022/12/29 14:17:11;;;;;;;10.38;6.13;;;9.80;99.90;;;;;;5092603;28;20298;-82
2022/12/29 14:20:04;;;;;;;13.00;5.85;;;9.80;99.90;;;;;;5101047;27;20305;-82
2022/12/29 14:23:00;;;;;;;10.25;6.20;;;9.80;99.90;;;;;;5094725;28;20639;-81
2022/12/29 14:26:01;;;;;;;11.80;6.47;;;9.80;99.90;;;;;;5098310;27;20237;-81
2022/12/29 14:28:54;;;;;;;13.60;6.63;;;9.80;99.90;;;;;;5107755;27;20283;-81
2022/12/29 14:31:50;;;;;;;12.52;6.90;;;9.80;99.90;;;;;;5096560;27;20235;-81
2022/12/29 14:34:44;;;;;;;10.48;6.22;;;9.90;99.90;;;;;;5113273;27;20616;-81
2022/12/29 14:37:40;;;;;;;12.15;6.68;;;9.80;99.90;;;;;;5092533;27;20218;-81
2022/12/29 14:40:30;;;;;;;12.80;6.35;;;9.80;99.90;;;;;;5109474;27;20323;-81
2022/12/29 14:43:26;;;;;;;11.30;6.40;;;9.80;99.90;;;;;;5097784;28;20219;-82
2022/12/29 14:46:15;;;;;;;14.00;6.65;;;9.80;99.90;;;;;;5100756;28;20240;-81
2022/12/29 14:49:04;;;;;;;10.10;6.55;;;9.90;99.90;;;;;;5107566;27;20645;-78
2022/12/29 14:52:04;;;;;;;9.63;6.22;;;9.90;99.90;;;;;;5121105;27;20234;-81
2022/12/29 14:55:00;;;;;;;14.07;6.75;;;9.90;99.90;;;;;;5097490;28;20836;-81
2022/12/29 14:57:54;;;;;;;13.80;6.88;;;9.80;99.90;;;;;;5099731;27;20302;-81
2022/12/29 15:00:45;;;;;;;12.15;6.55;;;9.90;99.90;;;;;;5098778;27;20229;-81
2022/12/29 15:03:44;;;;;;;11.38;6.35;;;9.90;99.90;;;;;;5100044;27;20654;-80
2022/12/29 15:06:41;;;;;;;14.75;7.18;;;9.80;99.90;;;;;;5126958;27;20222;-80
2022/12/29 15:09:36;;;;;;;12.00;6.90;;;9.90;99.90;;;;;;5096390;27;20693;-81
2022/12/29 15:12:35;;;;;;;11.15;6.68;;;9.90;99.90;;;;;;5095071;27;20223;-81
2022/12/29 15:15:28;;;;;;;11.25;6.60;;;9.90;99.90;;;;;;5104711;27;20223;-81
2022/12/29 15:18:25;;;;;;;12.50;7.03;;;9.90;99.90;;;;;;5098414;27;20218;-82
2022/12/29 15:21:16;;;;;;;12.63;7.28;;;9.80;99.90;;;;;;5098803;27;20983;-82
2022/12/29 15:24:05;;;;;;;9.95;6.53;;;9.80;99.90;;;;;;5092299;27;20215;-82
2022/12/29 15:26:55;;;;;;;11.25;6.53;;;9.80;99.90;;;;;;5110177;27;20229;-82
2022/12/29 15:29:46;;;;;;;13.38;6.90;;;9.80;99.90;;;;;;5096201;27;20233;-82
2022/12/29 15:32:44;;;;;;;13.55;6.82;;;9.80;99.90;;;;;;5099449;27;20227;-81
2022/12/29 15:35:35;;;;;;;13.45;6.85;;;9.80;99.90;;;;;;5103579;27;20757;-81
2022/12/29 15:38:26;;;;;;;12.45;6.78;;;9.70;99.90;;;;;;5107359;27;20218;-81
2022/12/29 15:44:45;;;;;;;11.48;6.55;;;9.70;99.90;;;;;;5096811;27;20367;-81
2022/12/29 15:47:35;;;;;;;15.00;7.25;;;9.70;99.90;;;;;;5092971;28;20867;-81
2022/12/29 15:50:29;;;;;;;12.93;6.75;;;9.70;99.90;;;;;;5095935;27;20219;-81